createdAt,value
2022-12-27T00:00:52.915Z,81.93
2022-12-27T00:03:41.090Z,82.06
2022-12-27T00:06:27.797Z,82.98
2022-12-27T00:09:16.092Z,82.65
2022-12-27T00:12:00.033Z,82.16
2022-12-27T00:14:42.074Z,82.20
2022-12-27T00:17:30.831Z,81.09
2022-12-27T00:20:20.057Z,80.50
2022-12-27T00:23:01.839Z,81.10
2022-12-27T00:25:50.133Z,80.85
2022-12-27T00:28:31.819Z,79.88
2022-12-27T00:31:22.047Z,79.94
2022-12-27T00:34:06.736Z,80.77
2022-12-27T00:36:55.777Z,80.47
2022-12-27T00:39:39.055Z,81.49
2022-12-27T00:42:27.873Z,81.09
2022-12-27T00:45:10.094Z,80.99
2022-12-27T00:47:59.827Z,80.66
2022-12-27T00:50:42.121Z,80.82
2022-12-27T00:53:32.885Z,80.28
2022-12-27T00:56:22.165Z,79.90
2022-12-27T00:59:12.825Z,80.62
2022-12-27T01:01:55.163Z,79.86
2022-12-27T01:04:43.762Z,80.51
2022-12-27T01:07:32.808Z,80.35
2022-12-27T01:10:22.102Z,80.99
2022-12-27T01:13:03.853Z,81.08
2022-12-27T01:15:52.141Z,80.98
2022-12-27T01:18:34.852Z,80.89
2022-12-27T01:21:26.393Z,80.46
2022-12-27T01:24:08.724Z,80.52
2022-12-27T01:26:57.662Z,80.49
2022-12-27T01:29:40.097Z,81.26
2022-12-27T01:32:28.764Z,80.19
2022-12-27T01:35:11.088Z,81.71
2022-12-27T01:38:00.818Z,81.34
2022-12-27T01:40:45.069Z,81.89
2022-12-27T01:43:46.746Z,82.01
2022-12-27T01:46:30.266Z,81.62
2022-12-27T01:49:19.852Z,81.57
2022-12-27T01:52:02.097Z,80.92
2022-12-27T01:54:50.846Z,81.45
2022-12-27T01:57:33.078Z,81.42
2022-12-27T02:00:21.725Z,81.49
2022-12-27T02:03:05.213Z,82.06
2022-12-27T02:05:53.796Z,81.70
2022-12-27T02:09:08.036Z,82.66
2022-12-27T02:12:01.652Z,82.50
2022-12-27T02:14:56.993Z,82.52
2022-12-27T02:17:45.840Z,82.18
2022-12-27T02:20:39.647Z,82.25
2022-12-27T02:24:14.700Z,81.44
2022-12-27T02:27:26.787Z,81.00
2022-12-27T02:30:17.766Z,81.74
2022-12-27T02:33:11.799Z,81.51
2022-12-27T02:36:12.206Z,82.12
2022-12-27T02:38:58.682Z,81.72
2022-12-27T02:42:07.531Z,81.51
2022-12-27T02:45:26.143Z,82.11
2022-12-27T02:48:39.421Z,81.57
2022-12-27T02:52:10.831Z,81.13
2022-12-27T02:55:17.780Z,82.04
2022-12-27T02:58:24.775Z,81.82
2022-12-27T03:01:32.890Z,80.73
2022-12-27T03:04:47.059Z,80.90
2022-12-27T03:07:49.820Z,80.65
2022-12-27T03:11:29.157Z,80.23
2022-12-27T03:14:54.790Z,81.62
2022-12-27T03:18:03.632Z,81.26
2022-12-27T03:21:12.737Z,81.26
2022-12-27T03:24:15.518Z,80.03
2022-12-27T03:27:06.867Z,81.08
2022-12-27T03:30:07.580Z,80.84
2022-12-27T03:33:21.783Z,79.51
2022-12-27T03:36:29.308Z,80.16
2022-12-27T03:39:27.743Z,79.73
2022-12-27T03:42:36.297Z,80.13
2022-12-27T03:45:29.723Z,79.00
2022-12-27T03:48:21.096Z,78.64
2022-12-27T03:51:19.658Z,78.34
2022-12-27T03:54:16.760Z,76.14
2022-12-27T03:57:05.813Z,75.79
2022-12-27T03:59:47.960Z,75.19
2022-12-27T04:02:37.042Z,74.30
2022-12-27T04:05:25.023Z,72.32
2022-12-27T04:08:25.825Z,72.50
2022-12-27T04:11:32.316Z,71.29
2022-12-27T04:14:32.862Z,70.91
2022-12-27T04:17:39.493Z,71.12
2022-12-27T04:20:40.790Z,70.80
2022-12-27T04:23:47.514Z,71.17
2022-12-27T04:26:47.655Z,70.29
2022-12-27T04:29:54.167Z,67.83
2022-12-27T04:32:54.728Z,68.02
2022-12-27T04:35:43.755Z,68.82
2022-12-27T04:38:26.147Z,69.04
2022-12-27T04:41:32.723Z,69.15
2022-12-27T04:44:33.342Z,70.54
2022-12-27T04:47:45.784Z,69.75
2022-12-27T04:51:03.735Z,69.35
2022-12-27T04:54:11.464Z,69.10
2022-12-27T04:56:53.658Z,67.70
2022-12-27T05:00:00.759Z,67.77
2022-12-27T05:02:44.213Z,67.34
2022-12-27T05:05:33.676Z,67.78
2022-12-27T05:08:36.489Z,68.47
2022-12-27T05:11:43.668Z,67.49
2022-12-27T05:14:26.071Z,68.47
2022-12-27T05:17:14.799Z,67.38
2022-12-27T05:19:57.078Z,67.31
2022-12-27T05:23:03.746Z,67.72
2022-12-27T05:25:53.042Z,66.65
2022-12-27T05:28:41.823Z,66.06
2022-12-27T05:31:24.191Z,65.51
2022-12-27T05:34:14.697Z,66.71
2022-12-27T05:37:03.761Z,65.75
2022-12-27T05:39:52.049Z,64.67
2022-12-27T05:42:33.645Z,62.48
2022-12-27T05:45:23.191Z,62.65
2022-12-27T05:48:06.697Z,62.59
2022-12-27T05:51:01.654Z,63.83
2022-12-27T05:53:50.638Z,63.29
2022-12-27T05:56:40.097Z,64.21
2022-12-27T05:59:28.034Z,63.30
2022-12-27T06:02:09.874Z,64.01
2022-12-27T06:04:53.078Z,62.81
2022-12-27T06:07:41.777Z,63.00
2022-12-27T06:10:30.131Z,63.12
2022-12-27T06:13:12.757Z,62.24
2022-12-27T06:16:02.291Z,61.81
2022-12-27T06:18:45.610Z,61.96
2022-12-27T06:21:34.716Z,60.21
2022-12-27T06:24:23.750Z,60.77
2022-12-27T06:27:13.065Z,61.05
2022-12-27T06:30:15.017Z,60.73
2022-12-27T06:33:06.122Z,59.87
2022-12-27T06:35:47.744Z,58.75
2022-12-27T06:38:36.106Z,59.30
2022-12-27T06:41:20.789Z,60.22
2022-12-27T06:44:02.884Z,59.12
2022-12-27T06:46:52.744Z,59.06
2022-12-27T06:49:42.021Z,57.84
2022-12-27T06:52:30.884Z,56.97
2022-12-27T06:55:13.973Z,58.51
2022-12-27T06:58:02.635Z,57.69
2022-12-27T07:00:45.143Z,58.84
2022-12-27T07:03:34.216Z,57.96
2022-12-27T07:06:18.123Z,58.13
2022-12-27T07:09:08.741Z,58.03
2022-12-27T07:11:51.149Z,58.55
2022-12-27T07:14:39.727Z,58.49
2022-12-27T07:17:22.054Z,57.28
2022-12-27T07:20:12.657Z,56.87
2022-12-27T07:22:55.131Z,56.97
2022-12-27T07:25:43.766Z,57.27
2022-12-27T07:28:32.691Z,57.86
2022-12-27T07:31:23.644Z,56.91
2022-12-27T07:34:07.981Z,56.77
2022-12-27T07:36:57.640Z,56.88
2022-12-27T07:39:46.942Z,57.38
2022-12-27T07:42:37.002Z,56.76
2022-12-27T07:45:18.729Z,56.97
2022-12-27T07:48:07.029Z,56.14
2022-12-27T07:51:09.697Z,56.38
2022-12-27T07:53:59.137Z,56.83
2022-12-27T07:56:41.704Z,57.16
2022-12-27T07:59:30.658Z,57.31
2022-12-27T08:02:19.842Z,56.21
2022-12-27T08:05:08.053Z,56.05
2022-12-27T08:07:50.687Z,56.05
2022-12-27T08:10:40.198Z,55.24
2022-12-27T08:13:21.730Z,56.26
2022-12-27T08:16:11.681Z,55.53
2022-12-27T08:18:55.176Z,54.57
2022-12-27T08:21:43.729Z,53.88
2022-12-27T08:24:32.692Z,54.00
2022-12-27T08:27:21.794Z,53.54
2022-12-27T08:30:03.994Z,52.82
2022-12-27T08:33:08.318Z,53.14
2022-12-27T08:35:53.513Z,51.95
2022-12-27T08:38:42.739Z,51.98
2022-12-27T08:41:36.162Z,52.06
2022-12-27T08:44:26.714Z,51.77
2022-12-27T08:47:09.001Z,52.56
2022-12-27T08:49:57.710Z,52.47
2022-12-27T08:52:46.061Z,51.13
2022-12-27T08:55:27.769Z,51.86
2022-12-27T08:58:16.321Z,52.49
2022-12-27T09:01:05.601Z,52.43
2022-12-27T09:03:55.744Z,51.78
2022-12-27T09:06:44.755Z,51.03
2022-12-27T09:09:33.041Z,50.81
2022-12-27T09:12:16.093Z,51.09
2022-12-27T09:15:00.145Z,51.78
2022-12-27T09:17:48.723Z,50.49
2022-12-27T09:20:38.075Z,52.32
2022-12-27T09:23:20.618Z,51.30
2022-12-27T09:26:22.830Z,50.72
2022-12-27T09:29:05.994Z,51.51
2022-12-27T09:31:54.800Z,51.37
2022-12-27T09:34:37.034Z,51.32
2022-12-27T09:37:25.700Z,51.14
2022-12-27T09:40:08.166Z,52.10
2022-12-27T09:43:23.811Z,51.93
2022-12-27T09:46:10.524Z,52.04
2022-12-27T09:49:03.710Z,51.86
2022-12-27T09:52:08.581Z,53.13
2022-12-27T09:55:07.824Z,53.51
2022-12-27T09:57:53.951Z,53.72
2022-12-27T10:00:46.235Z,54.00
2022-12-27T10:03:34.043Z,53.80
2022-12-27T10:06:56.567Z,53.75
2022-12-27T10:09:41.984Z,54.55
2022-12-27T10:13:02.118Z,56.02
2022-12-27T10:15:47.971Z,55.83
2022-12-27T10:18:57.779Z,55.82
2022-12-27T10:21:45.996Z,55.17
2022-12-27T10:24:43.770Z,55.33
2022-12-27T10:27:30.977Z,56.01
2022-12-27T10:30:24.719Z,55.37
2022-12-27T10:33:07.980Z,55.63
2022-12-27T10:35:57.765Z,55.88
2022-12-27T10:38:43.041Z,56.79
2022-12-27T10:41:40.763Z,56.52
2022-12-27T10:44:22.982Z,57.10
2022-12-27T10:47:11.723Z,57.29
2022-12-27T10:50:19.671Z,57.23
2022-12-27T10:53:08.023Z,57.76
2022-12-27T10:55:49.747Z,57.37
2022-12-27T10:58:37.998Z,57.90
2022-12-27T11:01:41.767Z,57.80
2022-12-27T11:04:31.061Z,58.83
2022-12-27T11:07:12.740Z,58.57
2022-12-27T11:10:07.976Z,59.66
2022-12-27T11:13:16.690Z,59.34
2022-12-27T11:15:59.224Z,59.93
2022-12-27T11:18:50.716Z,60.02
2022-12-27T11:21:38.833Z,60.96
2022-12-27T11:24:31.653Z,61.87
2022-12-27T11:27:31.594Z,60.33
2022-12-27T11:30:15.013Z,60.31
2022-12-27T11:33:05.619Z,60.52
2022-12-27T11:35:58.036Z,60.56
2022-12-27T11:38:49.644Z,61.51
2022-12-27T11:41:57.963Z,61.58
2022-12-27T11:44:52.613Z,61.88
2022-12-27T11:47:59.723Z,62.16
2022-12-27T11:50:54.009Z,64.29
2022-12-27T11:54:29.622Z,62.63
2022-12-27T11:57:44.850Z,62.97
2022-12-27T12:00:39.538Z,62.96
2022-12-27T12:03:49.082Z,63.31
2022-12-27T12:07:01.628Z,64.11
2022-12-27T12:09:43.868Z,64.22
2022-12-27T12:13:01.635Z,64.49
2022-12-27T12:16:32.681Z,65.45
2022-12-27T12:20:20.984Z,66.20
2022-12-27T12:23:35.707Z,66.69
2022-12-27T12:26:30.009Z,67.01
2022-12-27T12:29:30.644Z,66.00
2022-12-27T12:32:22.452Z,66.96
2022-12-27T12:35:33.690Z,66.06
2022-12-27T12:38:29.941Z,67.09
2022-12-27T12:41:58.734Z,67.13
2022-12-27T12:45:07.898Z,68.13
2022-12-27T12:48:08.810Z,68.05
2022-12-27T12:51:23.548Z,68.34
2022-12-27T12:54:39.700Z,68.99
2022-12-27T12:57:39.998Z,69.61
2022-12-27T13:00:32.564Z,68.19
2022-12-27T13:03:37.449Z,68.45
2022-12-27T13:06:32.584Z,68.67
2022-12-27T13:09:41.925Z,69.40
2022-12-27T13:12:54.787Z,69.43
2022-12-27T13:15:57.909Z,69.10
2022-12-27T13:18:56.754Z,69.17
2022-12-27T13:22:06.009Z,69.37
2022-12-27T13:25:22.662Z,68.93
2022-12-27T13:28:44.908Z,68.93
2022-12-27T13:32:10.690Z,68.59
2022-12-27T13:35:28.007Z,68.87
2022-12-27T13:38:26.626Z,68.21
2022-12-27T13:41:39.989Z,68.85
2022-12-27T13:44:43.876Z,68.79
2022-12-27T13:47:56.680Z,69.02
2022-12-27T13:50:51.710Z,68.83
2022-12-27T13:53:54.955Z,69.67
2022-12-27T13:56:54.404Z,70.25
2022-12-27T14:00:15.638Z,70.08
2022-12-27T14:03:47.773Z,70.54
2022-12-27T14:07:11.167Z,69.97
2022-12-27T14:10:20.661Z,70.31
2022-12-27T14:13:19.936Z,70.23
2022-12-27T14:16:04.603Z,70.76
2022-12-27T14:19:17.552Z,71.31
2022-12-27T14:22:12.552Z,71.97
2022-12-27T14:25:12.934Z,72.40
2022-12-27T14:28:19.722Z,72.70
2022-12-27T14:31:43.567Z,73.58
2022-12-27T14:34:46.598Z,74.06
2022-12-27T14:38:12.741Z,74.05
2022-12-27T14:41:43.700Z,74.26
2022-12-27T14:44:44.738Z,74.90
2022-12-27T14:48:12.198Z,75.49
2022-12-27T14:51:03.639Z,74.87
2022-12-27T14:54:09.986Z,75.31
2022-12-27T14:57:36.538Z,74.58
2022-12-27T15:00:26.984Z,75.93
2022-12-27T15:03:45.591Z,76.78
2022-12-27T15:06:40.011Z,77.13
2022-12-27T15:09:44.684Z,77.17
2022-12-27T15:12:30.540Z,76.95
2022-12-27T15:15:22.602Z,76.07
2022-12-27T15:18:19.984Z,76.09
2022-12-27T15:21:15.778Z,76.26
2022-12-27T15:24:18.957Z,76.05
2022-12-27T15:27:04.723Z,75.73
2022-12-27T15:30:09.986Z,75.83
2022-12-27T15:33:29.921Z,75.84
2022-12-27T15:36:25.926Z,76.77
2022-12-27T15:39:08.723Z,77.08
2022-12-27T15:42:37.976Z,76.26
2022-12-27T15:45:48.552Z,76.57
2022-12-27T15:49:14.983Z,77.55
2022-12-27T15:52:15.739Z,77.12
2022-12-27T15:55:23.005Z,77.26
2022-12-27T15:58:25.720Z,77.46
2022-12-27T16:01:26.391Z,77.81
2022-12-27T16:05:00.636Z,77.40
2022-12-27T16:07:59.553Z,77.52
2022-12-27T16:10:57.605Z,77.38
2022-12-27T16:13:49.927Z,77.90
2022-12-27T16:16:39.543Z,77.57
2022-12-27T16:20:16.431Z,77.32
2022-12-27T16:23:10.704Z,77.44
2022-12-27T16:26:08.884Z,77.81
2022-12-27T16:29:10.568Z,77.93
2022-12-27T16:31:59.984Z,77.30
2022-12-27T16:34:42.584Z,77.51
2022-12-27T16:38:04.507Z,77.46
2022-12-27T16:40:55.717Z,77.87
2022-12-27T16:44:12.982Z,76.66
2022-12-27T16:47:11.560Z,77.03
2022-12-27T16:50:22.731Z,77.54
2022-12-27T16:53:17.567Z,77.69
2022-12-27T16:56:32.613Z,76.98
2022-12-27T16:59:52.943Z,77.65
2022-12-27T17:03:01.614Z,77.98
2022-12-27T17:06:30.007Z,78.01
2022-12-27T17:09:16.960Z,77.91
2022-12-27T17:11:58.711Z,77.66
2022-12-27T17:14:49.938Z,78.04
2022-12-27T17:17:32.677Z,77.51
2022-12-27T17:20:26.419Z,77.64
2022-12-27T17:23:12.609Z,77.72
2022-12-27T17:26:09.824Z,77.39
2022-12-27T17:29:15.721Z,77.62
2022-12-27T17:32:10.755Z,77.91
2022-12-27T17:35:18.397Z,78.13
2022-12-27T17:38:40.229Z,77.60
2022-12-27T17:42:02.626Z,77.07
2022-12-27T17:45:16.675Z,77.25
2022-12-27T17:48:05.875Z,77.14
2022-12-27T17:51:02.694Z,76.66
2022-12-27T17:54:15.484Z,77.85
2022-12-27T17:57:26.486Z,77.63
2022-12-27T18:00:08.918Z,78.16
2022-12-27T18:02:58.648Z,78.14
2022-12-27T18:05:44.939Z,78.29
2022-12-27T18:08:37.590Z,78.25
2022-12-27T18:11:27.950Z,77.62
2022-12-27T18:14:21.649Z,77.90
2022-12-27T18:17:03.991Z,78.46
2022-12-27T18:19:52.650Z,77.48
2022-12-27T18:22:34.895Z,77.65
2022-12-27T18:25:47.522Z,77.54
2022-12-27T18:28:33.884Z,76.87
2022-12-27T18:32:04.669Z,76.53
2022-12-27T18:34:50.027Z,76.79
2022-12-27T18:37:42.659Z,76.63
2022-12-27T18:40:30.112Z,76.89
2022-12-27T18:43:25.478Z,77.47
2022-12-27T18:46:10.004Z,78.28
2022-12-27T18:49:00.581Z,78.42
2022-12-27T18:51:46.074Z,78.92
2022-12-27T18:54:37.538Z,78.60
2022-12-27T18:57:43.005Z,78.49
2022-12-27T19:00:34.525Z,78.09
2022-12-27T19:03:24.440Z,78.56
2022-12-27T19:06:19.569Z,78.44
2022-12-27T19:09:02.938Z,78.27
2022-12-27T19:12:01.594Z,78.50
2022-12-27T19:14:52.051Z,78.79
2022-12-27T19:17:40.627Z,78.63
2022-12-27T19:20:43.909Z,77.78
2022-12-27T19:23:43.692Z,78.71
2022-12-27T19:26:32.567Z,78.84
2022-12-27T19:29:20.007Z,78.44
2022-12-27T19:32:19.581Z,78.64
2022-12-27T19:35:10.955Z,77.56
2022-12-27T19:37:53.659Z,77.17
2022-12-27T19:40:36.014Z,77.96
2022-12-27T19:43:26.581Z,77.21
2022-12-27T19:46:08.808Z,77.60
2022-12-27T19:52:02.661Z,76.75
2022-12-27T19:54:58.506Z,77.21
2022-12-27T19:57:41.621Z,76.57
2022-12-27T20:00:32.682Z,77.44
2022-12-27T20:03:21.080Z,77.35
2022-12-27T20:06:13.093Z,77.02
2022-12-27T20:08:58.819Z,77.35
2022-12-27T20:11:47.644Z,77.16
2022-12-27T20:14:29.786Z,77.08
2022-12-27T20:17:18.526Z,77.23
2022-12-27T20:20:08.740Z,76.65
2022-12-27T20:22:51.106Z,77.17
2022-12-27T20:25:59.758Z,77.05
2022-12-27T20:28:42.224Z,76.95
2022-12-27T20:31:30.669Z,77.34
2022-12-27T20:34:12.996Z,76.22
2022-12-27T20:37:02.464Z,75.63
2022-12-27T20:39:44.670Z,76.87
2022-12-27T20:42:27.452Z,76.78
2022-12-27T20:45:17.543Z,76.25
2022-12-27T20:47:59.868Z,75.19
2022-12-27T20:50:49.657Z,75.67
2022-12-27T20:53:37.967Z,77.00
2022-12-27T20:56:21.514Z,77.16
2022-12-27T20:59:10.598Z,76.45
2022-12-27T21:01:57.002Z,77.55
2022-12-27T21:04:46.573Z,78.13
2022-12-27T21:07:28.938Z,78.05
2022-12-27T21:10:18.617Z,78.41
2022-12-27T21:13:56.235Z,78.13
2022-12-27T21:17:03.704Z,77.20
2022-12-27T21:19:45.859Z,77.27
2022-12-27T21:22:34.697Z,77.15
2022-12-27T21:25:17.864Z,77.88
2022-12-27T21:28:06.641Z,77.45
2022-12-27T21:30:48.892Z,77.58
2022-12-27T21:33:37.440Z,77.52
2022-12-27T21:36:22.844Z,77.25
2022-12-27T21:39:12.500Z,77.19
2022-12-27T21:41:55.078Z,77.45
2022-12-27T21:44:44.493Z,76.73
2022-12-27T21:47:27.698Z,77.33
2022-12-27T21:50:16.639Z,76.97
2022-12-27T21:53:11.419Z,76.94
2022-12-27T21:56:06.497Z,77.46
2022-12-27T21:58:49.869Z,77.58
2022-12-27T22:01:52.534Z,77.18
2022-12-27T22:04:41.479Z,76.90
2022-12-27T22:07:23.867Z,77.08
2022-12-27T22:10:13.571Z,76.99
2022-12-27T22:12:55.910Z,76.99
2022-12-27T22:15:44.533Z,77.75
2022-12-27T22:18:26.882Z,78.22
2022-12-27T22:21:16.559Z,78.29
2022-12-27T22:24:00.876Z,78.19
2022-12-27T22:26:50.702Z,77.52
2022-12-27T22:29:35.378Z,78.15
2022-12-27T22:32:25.502Z,77.70
2022-12-27T22:35:14.566Z,78.51
2022-12-27T22:38:03.522Z,77.94
2022-12-27T22:40:52.685Z,78.13
2022-12-27T22:43:35.476Z,77.38
2022-12-27T22:46:27.687Z,78.21
2022-12-27T22:49:16.557Z,78.30
2022-12-27T22:51:58.935Z,78.00
2022-12-27T22:55:05.688Z,78.00
2022-12-27T22:57:48.884Z,78.59
2022-12-27T23:00:37.491Z,78.73
2022-12-27T23:03:19.887Z,78.22
2022-12-27T23:06:09.658Z,78.91
2022-12-27T23:08:52.823Z,78.43
2022-12-27T23:11:44.629Z,78.06
2022-12-27T23:14:26.845Z,77.83
2022-12-27T23:17:15.489Z,77.91
2022-12-27T23:19:57.813Z,78.52
2022-12-27T23:22:46.428Z,78.14
2022-12-27T23:25:35.474Z,78.92
2022-12-27T23:28:23.926Z,78.72
2022-12-27T23:31:06.457Z,78.61
2022-12-27T23:33:49.557Z,78.30
2022-12-27T23:36:38.608Z,77.87
2022-12-27T23:39:27.863Z,79.17
2022-12-27T23:42:09.605Z,78.84
2022-12-27T23:44:57.862Z,78.12
2022-12-27T23:47:39.612Z,78.33
2022-12-27T23:50:27.790Z,78.57
2022-12-27T23:53:09.412Z,78.88
2022-12-27T23:56:05.771Z,78.39
2022-12-27T23:58:48.547Z,78.28
